Time;durP1;ratioP1;P1;durP2;ratioP2;P2;SDS_P1;SDS_P2;PMS_P1;PMS_P2;Temp;Humidity;BMP_temperature;BMP_pressure;BME280_temperature;BME280_humidity;BME280_pressure;Samples;Min_cycle;Max_cycle;Signal;HPM_P1;HPM_P2
2023/03/14 00:01:44;;;;;;;24.08;4.45;;;15.50;75.10;;;;;;3929512;30;20416;-67
2023/03/14 00:04:25;;;;;;;15.57;4.07;;;15.50;75.40;;;;;;3929189;30;20059;-67
2023/03/14 00:07:06;;;;;;;16.17;3.75;;;15.50;75.60;;;;;;3905679;30;20064;-67
2023/03/14 00:09:46;;;;;;;20.17;4.43;;;15.50;75.50;;;;;;3923966;30;20955;-67
2023/03/14 00:12:28;;;;;;;19.80;3.78;;;15.50;75.60;;;;;;3929015;30;20609;-67
2023/03/14 00:15:10;;;;;;;22.35;4.40;;;15.50;75.90;;;;;;3918600;30;20145;-67
2023/03/14 00:17:51;;;;;;;;;;;15.50;75.90;;;;;;3914894;30;20060;-67
2023/03/14 00:20:32;;;;;;;13.48;2.63;;;15.50;76.00;;;;;;3914540;30;19970;-67
2023/03/14 00:23:12;;;;;;;21.23;3.83;;;15.50;76.40;;;;;;3922146;30;20063;-67
2023/03/14 00:25:53;;;;;;;17.80;4.70;;;15.50;76.50;;;;;;3928661;30;20313;-67
2023/03/14 00:28:36;;;;;;;29.47;4.80;;;15.50;76.20;;;;;;3928973;30;20506;-67
2023/03/14 00:31:17;;;;;;;18.05;3.88;;;15.60;76.10;;;;;;3928523;30;20137;-68
2023/03/14 00:33:58;;;;;;;14.55;4.25;;;15.60;76.80;;;;;;3917000;30;20519;-68
2023/03/14 00:36:39;;;;;;;17.48;4.15;;;15.70;75.70;;;;;;3928635;30;20500;-68
2023/03/14 00:39:20;;;;;;;19.17;4.65;;;15.70;75.50;;;;;;3928429;30;20069;-67
2023/03/14 00:42:01;;;;;;;19.10;4.28;;;15.70;75.10;;;;;;3928386;30;20067;-67
2023/03/14 00:44:43;;;;;;;20.48;4.32;;;15.80;75.00;;;;;;3928829;30;20584;-67
2023/03/14 00:47:24;;;;;;;22.98;4.43;;;15.80;74.90;;;;;;3917637;30;20241;-67
2023/03/14 00:50:06;;;;;;;16.27;3.55;;;15.80;74.80;;;;;;3928742;30;20539;-67
2023/03/14 00:52:48;;;;;;;16.92;3.85;;;15.80;74.70;;;;;;3903185;30;20068;-67
2023/03/14 00:55:29;;;;;;;20.08;3.97;;;15.80;74.70;;;;;;3903134;30;20082;-67
2023/03/14 00:58:10;;;;;;;16.08;3.85;;;15.90;74.70;;;;;;3904815;30;20114;-67
2023/03/14 01:00:52;;;;;;;17.85;3.95;;;15.90;74.50;;;;;;3927858;30;20063;-67
2023/03/14 01:03:33;;;;;;;11.82;2.97;;;16.00;74.20;;;;;;3928436;30;20067;-67
2023/03/14 01:06:16;;;;;;;17.73;3.67;;;16.00;74.10;;;;;;3927861;30;20116;-67
2023/03/14 01:08:57;;;;;;;13.70;3.40;;;16.00;73.80;;;;;;3917500;30;20059;-67
2023/03/14 01:11:40;;;;;;;11.07;3.42;;;16.00;73.80;;;;;;3917539;30;20055;-67
2023/03/14 01:14:20;;;;;;;11.13;3.15;;;16.00;74.70;;;;;;3918401;30;20825;-68
2023/03/14 01:17:03;;;;;;;19.88;4.30;;;16.00;73.80;;;;;;3927841;30;20063;-68
2023/03/14 01:19:43;;;;;;;15.05;3.25;;;16.10;73.60;;;;;;3910345;30;20055;-68
2023/03/14 01:22:24;;;;;;;16.80;3.63;;;16.20;73.50;;;;;;3927590;30;20055;-68
2023/03/14 01:25:06;;;;;;;14.35;3.30;;;16.30;73.00;;;;;;3917276;30;20059;-68
2023/03/14 01:27:47;;;;;;;16.48;3.40;;;16.30;72.70;;;;;;3917022;30;20071;-67
2023/03/14 01:30:27;;;;;;;12.40;3.50;;;16.40;72.50;;;;;;3916511;30;20067;-67
2023/03/14 01:33:11;;;;;;;19.90;4.77;;;16.40;72.30;;;;;;3927652;30;20050;-67
2023/03/14 01:35:52;;;;;;;11.85;3.83;;;16.40;73.20;;;;;;3927114;30;20051;-68
2023/03/14 01:38:34;;;;;;;19.58;3.70;;;16.40;72.30;;;;;;3912373;30;20097;-67
2023/03/14 01:41:18;;;;;;;11.52;3.53;;;16.40;72.10;;;;;;3902491;30;20524;-68
2023/03/14 01:43:59;;;;;;;16.15;3.75;;;16.50;71.90;;;;;;3903787;30;20068;-67
2023/03/14 01:46:41;;;;;;;12.52;2.97;;;16.50;71.60;;;;;;3916905;30;20063;-68
2023/03/14 01:49:28;;;;;;;12.60;3.08;;;16.50;71.40;;;;;;3916469;30;20058;-67
2023/03/14 01:52:17;;;;;;;14.07;3.70;;;16.50;71.40;;;;;;3913132;30;20198;-67
2023/03/14 01:55:03;;;;;;;16.13;4.10;;;16.50;71.40;;;;;;3914181;30;20082;-67
2023/03/14 01:57:47;;;;;;;16.17;3.17;;;16.50;71.40;;;;;;3927016;30;20060;-67
2023/03/14 02:00:28;;;;;;;16.02;3.33;;;16.50;72.30;;;;;;3916333;30;20060;-67
2023/03/14 02:03:15;;;;;;;11.48;3.40;;;16.50;71.40;;;;;;3915633;30;20077;-68
2023/03/14 02:06:05;;;;;;;9.95;2.67;;;16.50;71.40;;;;;;3916450;30;20092;-68
2023/03/14 02:08:48;;;;;;;7.55;2.55;;;16.50;71.30;;;;;;3927654;30;20109;-68
2023/03/14 02:11:33;;;;;;;8.52;2.53;;;16.50;71.40;;;;;;3902170;30;20410;-67
2023/03/14 02:14:32;;;;;;;16.05;3.08;;;16.40;71.40;;;;;;3901161;30;20066;-68
2023/03/14 02:17:44;;;;;;;10.38;2.47;;;16.40;71.60;;;;;;3920749;30;20063;-67
2023/03/14 02:20:45;;;;;;;10.23;2.45;;;16.40;71.70;;;;;;3901232;30;20067;-68
2023/03/14 02:23:36;;;;;;;8.52;2.58;;;16.40;71.50;;;;;;3891938;30;20109;-68
2023/03/14 02:26:23;;;;;;;8.43;1.92;;;16.50;71.20;;;;;;3901675;30;20052;-67
2023/03/14 02:29:05;;;;;;;7.72;2.13;;;16.50;71.60;;;;;;3903450;30;20064;-67
2023/03/14 02:31:46;;;;;;;10.70;2.55;;;16.50;71.40;;;;;;3915880;30;20054;-69
2023/03/14 02:34:31;;;;;;;7.63;2.15;;;16.50;71.20;;;;;;3916290;30;20067;-70
2023/03/14 02:37:13;;;;;;;8.10;1.90;;;16.50;72.10;;;;;;3915416;30;20063;-68
2023/03/14 02:39:54;;;;;;;7.28;1.80;;;16.50;71.40;;;;;;3926897;30;20052;-67
2023/03/14 02:42:35;;;;;;;9.38;2.53;;;16.50;71.40;;;;;;3905504;30;20206;-68
2023/03/14 02:45:45;;;;;;;9.18;2.65;;;16.40;71.30;;;;;;3901367;30;20223;-67
2023/03/14 02:48:32;;;;;;;9.00;2.88;;;16.40;71.50;;;;;;3900039;30;20121;-67
2023/03/14 02:51:14;;;;;;;10.07;2.33;;;16.40;71.60;;;;;;3907428;30;20104;-67
2023/03/14 02:53:56;;;;;;;8.80;2.30;;;16.30;72.80;;;;;;3901436;30;20067;-68
2023/03/14 02:56:38;;;;;;;7.82;1.90;;;16.30;72.30;;;;;;3901723;30;20063;-68
2023/03/14 02:59:21;;;;;;;6.55;1.65;;;16.40;72.40;;;;;;3901543;30;20063;-67
2023/03/14 03:02:10;;;;;;;5.75;1.75;;;16.40;71.80;;;;;;3913477;30;20063;-67
2023/03/14 03:04:51;;;;;;;7.00;2.17;;;16.40;71.80;;;;;;3926752;30;20202;-67
2023/03/14 03:07:33;;;;;;;5.75;1.92;;;16.50;71.70;;;;;;3915942;30;20183;-67
2023/03/14 03:10:15;;;;;;;8.68;2.20;;;16.50;72.40;;;;;;3926747;30;20071;-67
2023/03/14 03:12:56;;;;;;;6.75;2.00;;;16.60;71.50;;;;;;3905907;30;20051;-67
2023/03/14 03:15:39;;;;;;;12.00;2.45;;;16.60;71.30;;;;;;3915954;30;20181;-68
2023/03/14 03:18:21;;;;;;;6.57;1.58;;;16.60;71.30;;;;;;3926456;30;20063;-67
2023/03/14 03:21:04;;;;;;;7.38;2.40;;;16.60;71.00;;;;;;3926880;30;20401;-67
2023/03/14 03:23:45;;;;;;;13.30;3.45;;;16.60;70.90;;;;;;3926889;30;20063;-67
2023/03/14 03:26:26;;;;;;;6.72;1.88;;;16.60;70.90;;;;;;3916737;30;20464;-67
2023/03/14 03:29:07;;;;;;;4.75;1.38;;;16.60;71.00;;;;;;3918860;30;20067;-67
2023/03/14 03:31:48;;;;;;;12.88;2.05;;;16.70;71.90;;;;;;3917978;30;20141;-67
2023/03/14 03:34:31;;;;;;;6.07;1.63;;;16.70;71.10;;;;;;3918234;30;20520;-67
2023/03/14 03:37:13;;;;;;;5.32;1.48;;;16.70;70.70;;;;;;3915044;30;20523;-67
2023/03/14 03:39:55;;;;;;;7.47;1.63;;;16.80;70.80;;;;;;3918592;30;20067;-67
2023/03/14 03:42:37;;;;;;;4.47;1.75;;;16.70;70.80;;;;;;3917914;30;20063;-67
2023/03/14 03:45:21;;;;;;;4.15;1.65;;;16.70;70.70;;;;;;3916003;30;20066;-67
2023/03/14 03:48:07;;;;;;;6.75;1.98;;;16.70;71.00;;;;;;3918587;30;20144;-67
2023/03/14 03:50:50;;;;;;;;;;;16.70;70.90;;;;;;3914972;30;20138;-67
2023/03/14 03:53:34;;;;;;;8.38;2.05;;;16.70;71.00;;;;;;3904283;30;20391;-68
2023/03/14 03:56:20;;;;;;;10.63;2.30;;;16.70;71.00;;;;;;3901465;30;20632;-67
2023/03/14 03:59:00;;;;;;;8.98;2.33;;;16.70;71.10;;;;;;3904203;30;20063;-67
2023/03/14 04:01:41;;;;;;;6.43;1.80;;;16.70;71.20;;;;;;3907984;30;20059;-67
2023/03/14 04:04:22;;;;;;;6.13;2.85;;;16.60;71.50;;;;;;3903967;30;20067;-67
2023/03/14 04:07:05;;;;;;;4.97;2.17;;;16.50;71.70;;;;;;3914903;30;20056;-67
2023/03/14 04:09:46;;;;;;;7.88;2.85;;;16.60;72.80;;;;;;3897137;30;20060;-67
2023/03/14 04:12:49;;;;;;;6.63;2.35;;;16.60;71.80;;;;;;3914472;30;20055;-68
2023/03/14 04:15:34;;;;;;;7.45;2.70;;;16.70;71.50;;;;;;3903846;30;20398;-67
2023/03/14 04:18:22;;;;;;;10.40;2.63;;;16.70;72.40;;;;;;3928829;30;20421;-67
2023/03/14 04:21:03;;;;;;;8.65;2.72;;;16.70;71.50;;;;;;3903623;30;20067;-67
2023/03/14 04:23:56;;;;;;;15.73;2.85;;;16.80;71.40;;;;;;3903325;30;20063;-68
2023/03/14 04:26:39;;;;;;;5.18;2.22;;;16.80;71.20;;;;;;3913457;30;20067;-68
2023/03/14 04:29:23;;;;;;;5.97;2.22;;;16.70;71.30;;;;;;3915978;30;20066;-67
2023/03/14 04:32:04;;;;;;;10.43;2.60;;;16.70;71.50;;;;;;3917492;30;20145;-67
2023/03/14 04:34:45;;;;;;;6.10;2.50;;;16.70;71.60;;;;;;3917822;30;20082;-68
2023/03/14 04:37:26;;;;;;;6.18;2.65;;;16.70;71.60;;;;;;3917135;30;20198;-67
2023/03/14 04:40:10;;;;;;;9.07;2.33;;;16.60;71.80;;;;;;3917711;30;20062;-69
2023/03/14 04:42:51;;;;;;;7.00;2.42;;;16.60;71.80;;;;;;3903518;30;20401;-67
2023/03/14 04:45:33;;;;;;;11.57;2.95;;;16.70;71.90;;;;;;3906099;30;20051;-68
2023/03/14 04:48:16;;;;;;;4.53;2.00;;;16.60;71.70;;;;;;3917331;30;20516;-69
2023/03/14 04:50:57;;;;;;;6.95;2.00;;;16.70;71.80;;;;;;3917375;30;20194;-68
2023/03/14 04:53:39;;;;;;;7.32;1.88;;;16.70;72.40;;;;;;3916843;30;20467;-68
2023/03/14 04:56:25;;;;;;;5.22;1.70;;;16.70;71.40;;;;;;3917355;30;20058;-67
2023/03/14 04:59:08;;;;;;;9.00;3.35;;;16.80;71.40;;;;;;3909077;30;20496;-67
2023/03/14 05:01:50;;;;;;;8.88;2.20;;;16.80;71.40;;;;;;3896880;30;20067;-67
2023/03/14 05:04:54;;;;;;;5.18;2.25;;;16.80;71.40;;;;;;3902735;30;20109;-67
2023/03/14 05:07:59;;;;;;;6.75;2.25;;;16.70;71.50;;;;;;3897998;30;20075;-67
2023/03/14 05:10:59;;;;;;;5.32;2.08;;;16.70;71.70;;;;;;3913496;30;20932;-67
2023/03/14 05:13:56;;;;;;;7.13;2.83;;;16.70;72.10;;;;;;3906247;30;20094;-67
2023/03/14 05:16:55;;;;;;;7.57;2.58;;;16.70;72.00;;;;;;3902504;30;20183;-68
2023/03/14 05:19:56;;;;;;;7.10;2.57;;;16.70;71.80;;;;;;3897160;30;20505;-67
2023/03/14 05:23:02;;;;;;;5.90;2.53;;;16.70;71.50;;;;;;3913193;30;20083;-67
2023/03/14 05:26:16;;;;;;;6.35;2.47;;;16.80;71.60;;;;;;3892745;30;20492;-67
2023/03/14 05:29:14;;;;;;;8.82;2.20;;;16.70;71.50;;;;;;3909955;30;20124;-67
2023/03/14 05:32:09;;;;;;;4.97;2.65;;;16.70;71.60;;;;;;3927795;30;20582;-68
2023/03/14 05:35:09;;;;;;;6.95;2.25;;;16.70;71.70;;;;;;3927957;30;20071;-69
2023/03/14 05:38:01;;;;;;;4.35;2.63;;;16.80;71.60;;;;;;3916544;30;20064;-68
2023/03/14 05:40:51;;;;;;;7.57;2.63;;;16.80;71.60;;;;;;3927676;30;20087;-68
2023/03/14 05:43:54;;;;;;;7.68;2.90;;;16.70;71.60;;;;;;3916053;30;20467;-68
2023/03/14 05:46:56;;;;;;;6.65;2.80;;;16.70;71.90;;;;;;3923987;30;20067;-68
2023/03/14 05:49:43;;;;;;;7.70;2.80;;;16.70;73.00;;;;;;3926936;30;20051;-68
2023/03/14 05:52:42;;;;;;;7.70;2.88;;;16.60;72.10;;;;;;3926772;30;20077;-67
2023/03/14 05:55:43;;;;;;;5.97;2.30;;;16.70;72.20;;;;;;3927481;30;20055;-67
2023/03/14 05:58:34;;;;;;;4.70;2.40;;;16.70;72.10;;;;;;3906178;30;20114;-67
2023/03/14 06:01:32;;;;;;;9.23;2.65;;;16.70;72.10;;;;;;3902108;30;20055;-67
2023/03/14 06:04:29;;;;;;;6.05;2.20;;;16.70;73.00;;;;;;3902037;30;20473;-67
2023/03/14 06:07:12;;;;;;;6.43;2.53;;;16.70;72.10;;;;;;3898753;30;20056;-68
2023/03/14 06:09:53;;;;;;;4.05;2.70;;;16.70;72.20;;;;;;3902283;30;20051;-67
2023/03/14 06:12:35;;;;;;;7.00;2.67;;;16.70;72.00;;;;;;3901879;30;20520;-67
2023/03/14 06:15:16;;;;;;;2.58;2.10;;;16.70;72.10;;;;;;3913426;30;20105;-68
2023/03/14 06:18:01;;;;;;;6.15;2.88;;;16.70;72.30;;;;;;3911071;30;20158;-68
2023/03/14 06:20:44;;;;;;;9.65;2.47;;;16.60;72.40;;;;;;3901732;30;20110;-68
2023/03/14 06:23:31;;;;;;;3.72;2.10;;;16.70;72.40;;;;;;3891859;30;20061;-67
2023/03/14 06:26:13;;;;;;;3.42;2.28;;;16.70;72.40;;;;;;3905749;30;20068;-67
2023/03/14 06:28:54;;;;;;;3.13;1.87;;;16.70;73.20;;;;;;3910410;30;20047;-67
2023/03/14 06:31:36;;;;;;;4.13;2.17;;;16.70;72.20;;;;;;3916492;30;20070;-65
2023/03/14 06:34:19;;;;;;;3.33;2.10;;;16.80;72.10;;;;;;3916184;30;20050;-68
2023/03/14 06:37:01;;;;;;;5.40;1.98;;;16.90;72.30;;;;;;3911093;30;20059;-67
2023/03/14 06:39:44;;;;;;;4.50;1.77;;;16.90;72.10;;;;;;3915902;30;20055;-68
2023/03/14 06:42:34;;;;;;;;;;;16.90;71.90;;;;;;3914296;30;20067;-67
2023/03/14 06:45:15;;;;;;;3.58;2.08;;;16.90;71.90;;;;;;3899182;30;19952;-67
2023/03/14 06:47:57;;;;;;;5.28;1.55;;;16.80;72.30;;;;;;3900182;30;20129;-67
2023/03/14 06:50:46;;;;;;;1.70;0.80;;;16.90;72.10;;;;;;3901479;30;20067;-67
2023/03/14 06:53:28;;;;;;;3.20;0.63;;;16.90;71.60;;;;;;3914790;30;20075;-67
2023/03/14 06:56:12;;;;;;;3.88;1.13;;;16.90;71.50;;;;;;3913979;30;20059;-67
2023/03/14 06:58:53;;;;;;;3.65;1.13;;;16.90;71.40;;;;;;3926560;30;20067;-67
2023/03/14 07:01:37;;;;;;;8.77;2.28;;;16.90;71.60;;;;;;3914718;30;20063;-67
2023/03/14 07:04:20;;;;;;;15.23;2.63;;;16.80;69.10;;;;;;3915792;30;20062;-67
2023/03/14 07:07:02;;;;;;;9.07;2.38;;;16.80;71.40;;;;;;3905948;30;20059;-66
2023/03/14 07:09:48;;;;;;;7.57;2.03;;;16.70;70.40;;;;;;3902710;30;20412;-66
2023/03/14 07:12:29;;;;;;;6.55;2.05;;;16.60;68.60;;;;;;3926581;30;20055;-66
2023/03/14 07:15:11;;;;;;;8.15;2.03;;;16.50;67.30;;;;;;3904261;30;20071;-66
2023/03/14 07:18:16;;;;;;;8.77;2.08;;;16.40;66.00;;;;;;3910221;30;20095;-66
2023/03/14 07:20:58;;;;;;;6.75;1.70;;;16.20;66.10;;;;;;3926712;30;20063;-67
2023/03/14 07:23:39;;;;;;;5.68;1.45;;;16.10;67.20;;;;;;3915762;30;20621;-66
2023/03/14 07:26:22;;;;;;;3.92;0.90;;;16.00;67.20;;;;;;3910772;30;20059;-66
2023/03/14 07:29:05;;;;;;;5.32;0.90;;;16.00;66.70;;;;;;3901036;30;20094;-66
2023/03/14 07:31:47;;;;;;;4.63;0.90;;;15.90;60.70;;;;;;3911840;30;20531;-66
2023/03/14 07:34:31;;;;;;;4.07;1.05;;;15.80;62.80;;;;;;3917625;30;20378;-67
2023/03/14 07:37:13;;;;;;;5.05;0.93;;;15.70;61.60;;;;;;3916104;30;20053;-66
2023/03/14 07:39:54;;;;;;;6.70;0.77;;;15.50;61.60;;;;;;3933101;30;20112;-65
2023/03/14 07:42:40;;;;;;;2.50;0.50;;;15.50;62.10;;;;;;3917903;30;20055;-65
2023/03/14 07:45:28;;;;;;;2.53;0.73;;;15.40;63.30;;;;;;3919279;30;20561;-65
2023/03/14 07:48:09;;;;;;;1.83;0.60;;;15.50;65.30;;;;;;3920804;30;20279;-65
2023/03/14 07:50:50;;;;;;;1.95;0.70;;;15.50;64.40;;;;;;3937318;30;20059;-66
2023/03/14 07:53:31;;;;;;;3.47;0.60;;;15.60;64.40;;;;;;3918074;30;20117;-66
2023/03/14 07:56:12;;;;;;;3.65;0.50;;;15.60;64.10;;;;;;3935272;30;20098;-66
2023/03/14 07:58:55;;;;;;;4.63;0.50;;;15.60;61.60;;;;;;3926713;30;20075;-66
2023/03/14 08:01:35;;;;;;;2.60;0.40;;;15.50;63.50;;;;;;3935558;30;20408;-66
2023/03/14 08:04:16;;;;;;;2.53;0.65;;;15.60;64.60;;;;;;3934232;30;20059;-66
2023/03/14 08:06:57;;;;;;;1.30;0.43;;;15.60;63.50;;;;;;3924580;30;20546;-66
2023/03/14 08:09:38;;;;;;;0.80;0.50;;;15.70;63.10;;;;;;3932556;30;20055;-66
2023/03/14 08:12:19;;;;;;;1.92;0.40;;;15.70;61.70;;;;;;3929961;30;20059;-66
2023/03/14 08:15:02;;;;;;;2.67;0.77;;;15.70;62.70;;;;;;3933879;30;20066;-66
2023/03/14 08:17:42;;;;;;;1.90;0.50;;;15.60;62.90;;;;;;3931841;30;20071;-66
2023/03/14 08:20:26;;;;;;;1.92;0.70;;;15.60;63.30;;;;;;3927166;30;20058;-67
2023/03/14 08:23:07;;;;;;;3.15;0.90;;;15.60;63.70;;;;;;3922745;30;20527;-66
2023/03/14 08:25:50;;;;;;;1.70;0.55;;;15.50;63.40;;;;;;3932216;30;20062;-66
2023/03/14 08:28:32;;;;;;;4.95;1.08;;;15.50;61.10;;;;;;3930908;30;20137;-66
2023/03/14 08:31:15;;;;;;;2.67;0.65;;;15.40;62.30;;;;;;3933616;30;20056;-66
2023/03/14 08:33:56;;;;;;;4.20;0.95;;;15.30;60.30;;;;;;3934773;30;20527;-66
2023/03/14 08:36:37;;;;;;;3.70;0.73;;;15.30;63.10;;;;;;3915703;30;20071;-66
2023/03/14 08:39:18;;;;;;;4.05;0.75;;;15.20;62.00;;;;;;3924275;30;20626;-66
2023/03/14 08:41:59;;;;;;;2.85;0.63;;;15.20;62.50;;;;;;3926782;30;20059;-66
2023/03/14 08:44:41;;;;;;;3.25;0.80;;;15.10;61.80;;;;;;3933439;30;20595;-66
2023/03/14 08:47:23;;;;;;;1.48;1.00;;;15.00;62.20;;;;;;3933499;30;20059;-66
2023/03/14 08:50:04;;;;;;;3.53;0.90;;;15.00;61.80;;;;;;3936504;30;20067;-67
2023/03/14 08:52:45;;;;;;;2.95;1.35;;;14.90;62.20;;;;;;3926104;30;20186;-66
2023/03/14 08:55:27;;;;;;;4.50;0.95;;;14.90;64.50;;;;;;3926577;30;20051;-66
2023/03/14 08:58:08;;;;;;;6.00;1.35;;;15.00;65.10;;;;;;3922596;30;20062;-66
2023/03/14 09:00:49;;;;;;;7.10;2.10;;;15.00;65.20;;;;;;3930418;30;20079;-66
2023/03/14 09:03:31;;;;;;;4.20;1.45;;;15.00;63.10;;;;;;3927654;30;20428;-67
2023/03/14 09:06:12;;;;;;;9.60;2.00;;;15.00;61.00;;;;;;3926248;30;20058;-66
2023/03/14 09:08:53;;;;;;;10.57;2.50;;;15.00;60.60;;;;;;3926206;30;20100;-66
2023/03/14 09:11:34;;;;;;;6.72;1.90;;;15.00;60.50;;;;;;3935450;30;20093;-66
2023/03/14 09:14:15;;;;;;;6.85;2.20;;;14.90;59.60;;;;;;3926198;30;20078;-66
2023/03/14 09:16:56;;;;;;;13.82;2.70;;;14.80;61.30;;;;;;3928445;30;20062;-66
2023/03/14 09:19:38;;;;;;;10.75;2.35;;;14.80;62.10;;;;;;3930294;30;20072;-66
2023/03/14 09:22:20;;;;;;;12.23;2.58;;;14.80;61.90;;;;;;3930311;30;20067;-67
2023/03/14 09:25:01;;;;;;;9.40;2.22;;;14.80;60.70;;;;;;3935525;30;20067;-66
2023/03/14 09:27:42;;;;;;;8.93;2.33;;;14.70;60.50;;;;;;3928264;30;20137;-66
2023/03/14 09:30:23;;;;;;;9.63;3.10;;;14.70;61.10;;;;;;3927912;30;20055;-66
2023/03/14 09:33:04;;;;;;;10.80;2.28;;;14.70;60.60;;;;;;3932874;30;20586;-66
2023/03/14 09:35:47;;;;;;;9.90;2.35;;;14.60;61.80;;;;;;3927043;30;20055;-66
2023/03/14 09:38:28;;;;;;;8.63;2.30;;;14.60;63.20;;;;;;3934524;30;20065;-66
2023/03/14 09:41:16;;;;;;;11.40;3.05;;;14.60;63.10;;;;;;3937185;30;20148;-66
2023/03/14 09:44:04;;;;;;;14.63;3.17;;;14.60;63.20;;;;;;3936723;30;20544;-66
2023/03/14 09:46:48;;;;;;;15.07;2.72;;;14.60;61.30;;;;;;3934438;30;20063;-66
2023/03/14 09:49:32;;;;;;;12.25;2.88;;;14.50;61.20;;;;;;3929154;30;20063;-66
2023/03/14 09:52:17;;;;;;;11.40;2.53;;;14.50;62.10;;;;;;3934940;30;20066;-66
2023/03/14 09:55:03;;;;;;;15.63;3.10;;;14.40;62.20;;;;;;3930669;30;20073;-66
2023/03/14 09:57:47;;;;;;;13.77;2.47;;;14.40;61.20;;;;;;3925805;30;20082;-67
2023/03/14 10:00:31;;;;;;;13.32;3.85;;;14.40;62.40;;;;;;3938298;30;20164;-69
2023/03/14 10:03:29;;;;;;;17.52;3.20;;;14.40;62.60;;;;;;3931810;30;20072;-68
2023/03/14 10:06:13;;;;;;;16.27;2.70;;;14.30;62.00;;;;;;3926382;30;20076;-67
2023/03/14 10:08:56;;;;;;;16.77;3.45;;;14.30;62.90;;;;;;3929548;30;20578;-67
2023/03/14 10:11:37;;;;;;;16.38;4.15;;;14.30;62.30;;;;;;3931358;30;20133;-66
2023/03/14 10:14:30;;;;;;;16.60;3.00;;;14.30;61.60;;;;;;3932890;30;20132;-66
2023/03/14 10:17:13;;;;;;;13.93;2.75;;;14.20;60.50;;;;;;3934140;30;20063;-67
2023/03/14 10:19:56;;;;;;;16.77;2.97;;;14.20;60.60;;;;;;3931064;30;20241;-67
2023/03/14 10:22:37;;;;;;;13.98;3.35;;;14.20;60.90;;;;;;3931386;30;20059;-67
2023/03/14 10:25:28;;;;;;;13.40;3.60;;;14.20;60.50;;;;;;3931026;30;20070;-67
2023/03/14 10:28:24;;;;;;;15.90;3.60;;;14.20;59.20;;;;;;3937097;30;20067;-68
2023/03/14 10:31:05;;;;;;;14.65;2.92;;;14.10;59.50;;;;;;3924433;30;20067;-67
2023/03/14 10:34:00;;;;;;;9.57;2.95;;;14.20;59.40;;;;;;3925826;30;20062;-66
2023/03/14 10:36:40;;;;;;;13.32;2.20;;;14.10;58.60;;;;;;3923975;30;20479;-67
2023/03/14 10:39:41;;;;;;;12.80;2.97;;;14.20;58.10;;;;;;3924745;30;20508;-66
2023/03/14 10:42:29;;;;;;;11.25;2.33;;;14.20;59.40;;;;;;3907490;30;20066;-67
2023/03/14 10:45:29;;;;;;;10.40;2.15;;;14.10;59.40;;;;;;3931126;30;20063;-66
2023/03/14 10:48:23;;;;;;;11.68;2.65;;;14.20;59.60;;;;;;3925271;30;20067;-68
2023/03/14 10:51:07;;;;;;;9.43;2.60;;;14.20;59.60;;;;;;3925681;30;20397;-68
2023/03/14 10:53:51;;;;;;;13.85;2.75;;;14.20;59.80;;;;;;3934489;30;20200;-68
2023/03/14 10:56:36;;;;;;;7.95;1.83;;;14.20;59.10;;;;;;3937969;30;20061;-68
2023/03/14 10:59:18;;;;;;;8.43;1.85;;;14.20;58.80;;;;;;3938693;30;20137;-68
2023/03/14 11:02:06;;;;;;;5.45;1.85;;;14.20;58.90;;;;;;3919628;30;20235;-68
2023/03/14 11:05:04;;;;;;;9.23;2.10;;;14.20;58.90;;;;;;3928451;30;20075;-67
2023/03/14 11:07:45;;;;;;;11.45;2.70;;;14.20;56.70;;;;;;3925011;30;20063;-68
2023/03/14 11:10:33;;;;;;;10.02;2.42;;;14.20;55.80;;;;;;3925377;30;20062;-68
2023/03/14 11:13:19;;;;;;;7.97;1.92;;;14.20;55.60;;;;;;3931290;30;20059;-67
2023/03/14 11:16:09;;;;;;;6.30;2.40;;;14.20;56.30;;;;;;3931774;30;20075;-68
2023/03/14 11:19:19;;;;;;;4.97;1.58;;;14.20;56.90;;;;;;3925899;30;20063;-67
2023/03/14 11:22:07;;;;;;;9.73;1.88;;;14.20;57.00;;;;;;3878403;30;20531;-67
2023/03/14 11:25:14;;;;;;;8.15;1.88;;;14.20;56.00;;;;;;3924622;30;20409;-66
2023/03/14 11:28:02;;;;;;;6.85;1.65;;;14.20;57.30;;;;;;3921816;30;20062;-66
2023/03/14 11:30:51;;;;;;;10.23;2.05;;;14.20;56.60;;;;;;3925348;30;20060;-66
2023/03/14 11:33:38;;;;;;;5.25;2.05;;;14.20;56.60;;;;;;3928650;30;20062;-67
2023/03/14 11:36:25;;;;;;;7.55;1.58;;;14.20;55.90;;;;;;3932673;30;20071;-67
2023/03/14 11:39:13;;;;;;;4.60;1.48;;;14.20;57.00;;;;;;3929441;30;20066;-67
2023/03/14 11:41:58;;;;;;;5.70;1.75;;;14.20;56.90;;;;;;3931878;30;20053;-67
2023/03/14 11:44:40;;;;;;;6.57;1.63;;;14.20;57.40;;;;;;3915468;30;20055;-67
2023/03/14 11:47:25;;;;;;;4.13;1.38;;;14.20;58.00;;;;;;3934818;30;20196;-68
2023/03/14 11:50:16;;;;;;;5.97;1.77;;;14.20;57.60;;;;;;3928201;30;20059;-68
2023/03/14 11:53:02;;;;;;;5.60;1.47;;;14.20;57.00;;;;;;3930098;30;20182;-69
2023/03/14 11:55:45;;;;;;;6.50;1.35;;;14.20;55.80;;;;;;3923365;30;20066;-69
2023/03/14 11:58:30;;;;;;;2.88;0.88;;;14.20;54.10;;;;;;3927340;30;20137;-69
2023/03/14 12:01:14;;;;;;;6.13;1.50;;;14.20;54.80;;;;;;3929792;30;20405;-69
2023/03/14 12:04:02;;;;;;;5.25;1.90;;;14.20;55.70;;;;;;3939858;30;20094;-68
2023/03/14 12:06:49;;;;;;;3.78;1.55;;;14.10;56.10;;;;;;3913035;30;20058;-67
2023/03/14 12:09:30;;;;;;;7.30;1.60;;;14.20;55.90;;;;;;3935239;30;20071;-69
2023/03/14 12:12:14;;;;;;;5.80;1.10;;;14.20;57.30;;;;;;3927455;30;20070;-68
2023/03/14 12:14:59;;;;;;;7.38;1.77;;;14.20;56.40;;;;;;3922336;30;20055;-69
2023/03/14 12:17:43;;;;;;;7.07;1.63;;;14.20;55.50;;;;;;3941348;30;21100;-69
2023/03/14 12:20:25;;;;;;;7.78;1.50;;;14.20;55.00;;;;;;3930012;30;20059;-69
2023/03/14 12:23:12;;;;;;;8.00;1.70;;;14.20;54.60;;;;;;3927089;30;20174;-69
2023/03/14 12:26:13;;;;;;;8.43;2.15;;;14.20;54.90;;;;;;3922783;30;20143;-68
2023/03/14 12:29:15;;;;;;;6.03;1.88;;;14.10;55.40;;;;;;3927037;30;20093;-68
2023/03/14 12:32:23;;;;;;;7.45;1.60;;;14.10;55.70;;;;;;3927003;30;20081;-68
2023/03/14 12:35:23;;;;;;;9.38;2.30;;;14.10;58.00;;;;;;3928088;30;20071;-69
2023/03/14 12:38:05;;;;;;;6.55;1.58;;;14.10;57.80;;;;;;3922220;30;20067;-69
2023/03/14 12:40:59;;;;;;;6.53;1.30;;;14.10;58.20;;;;;;3927861;30;20388;-69
2023/03/14 12:43:40;;;;;;;9.02;2.30;;;14.10;58.50;;;;;;3926964;30;20067;-68
2023/03/14 12:46:24;;;;;;;6.97;1.98;;;14.10;59.10;;;;;;3932147;30;20059;-68
2023/03/14 12:49:10;;;;;;;6.75;1.90;;;14.10;57.60;;;;;;3932715;30;20442;-69
2023/03/14 12:52:00;;;;;;;8.52;2.47;;;14.10;58.30;;;;;;3914553;30;20849;-69
2023/03/14 12:54:46;;;;;;;8.45;1.60;;;14.10;56.60;;;;;;3935498;30;20058;-68
2023/03/14 12:57:33;;;;;;;7.32;1.60;;;14.10;57.80;;;;;;3934471;30;20198;-69
2023/03/14 13:00:20;;;;;;;8.23;3.03;;;14.10;58.80;;;;;;3937420;30;20140;-69
2023/03/14 13:03:13;;;;;;;4.57;1.25;;;14.10;58.00;;;;;;3939251;30;20095;-69
2023/03/14 13:05:57;;;;;;;5.20;1.67;;;14.10;57.00;;;;;;3922176;30;20606;-68
2023/03/14 13:08:40;;;;;;;7.43;1.65;;;14.10;58.30;;;;;;3939832;30;20438;-68
2023/03/14 13:11:21;;;;;;;4.10;1.42;;;14.10;56.80;;;;;;3928697;30;20058;-69
2023/03/14 13:14:10;;;;;;;6.00;1.30;;;14.10;55.40;;;;;;3911345;30;20079;-69
2023/03/14 13:16:51;;;;;;;5.65;1.73;;;14.10;55.70;;;;;;3929330;30;20076;-69
2023/03/14 13:19:34;;;;;;;5.97;1.90;;;14.10;54.70;;;;;;3934238;30;20195;-68
2023/03/14 13:22:21;;;;;;;5.53;1.38;;;14.10;54.20;;;;;;3933605;30;20055;-66
2023/03/14 13:25:04;;;;;;;6.18;1.17;;;14.10;55.20;;;;;;3927198;30;20074;-64
2023/03/14 13:27:45;;;;;;;6.97;1.77;;;14.10;54.40;;;;;;3916828;30;20137;-64
2023/03/14 13:30:29;;;;;;;6.55;1.60;;;14.10;55.90;;;;;;3934386;30;20063;-64
2023/03/14 13:33:15;;;;;;;5.53;1.77;;;14.10;56.10;;;;;;3928303;30;20147;-66
2023/03/14 13:35:58;;;;;;;4.57;1.02;;;14.10;55.60;;;;;;3924397;30;20052;-67
2023/03/14 13:38:40;;;;;;;6.68;1.60;;;14.10;54.80;;;;;;3928708;30;20087;-65
2023/03/14 13:41:21;;;;;;;7.70;1.42;;;14.10;54.40;;;;;;3923341;30;20061;-65
2023/03/14 13:44:07;;;;;;;6.70;1.23;;;14.10;54.20;;;;;;3932472;30;20079;-65
2023/03/14 13:46:50;;;;;;;4.20;1.23;;;14.10;55.90;;;;;;3936136;30;20116;-65
2023/03/14 13:49:35;;;;;;;5.20;1.27;;;14.10;55.70;;;;;;3931114;30;20066;-66
2023/03/14 13:52:36;;;;;;;4.47;0.93;;;14.10;55.30;;;;;;3925452;30;20077;-66
2023/03/14 13:55:19;;;;;;;5.22;1.15;;;14.10;54.80;;;;;;3929816;30;20062;-65
2023/03/14 13:58:00;;;;;;;5.13;1.00;;;14.10;55.30;;;;;;3922229;30;20086;-65
2023/03/14 14:00:40;;;;;;;4.60;1.23;;;14.10;54.70;;;;;;3934792;30;20063;-65
2023/03/14 14:03:23;;;;;;;4.22;1.20;;;14.10;54.20;;;;;;3930173;30;20136;-66
2023/03/14 14:06:07;;;;;;;3.30;1.30;;;14.10;55.10;;;;;;3932881;30;20071;-65
2023/03/14 14:08:48;;;;;;;4.38;1.45;;;14.10;55.20;;;;;;3927238;30;20176;-65
2023/03/14 14:11:38;;;;;;;8.25;2.65;;;14.10;55.10;;;;;;3939550;30;20059;-66
2023/03/14 14:14:33;;;;;;;6.70;1.83;;;14.10;55.70;;;;;;3924328;30;20059;-65
2023/03/14 14:17:18;;;;;;;9.82;2.08;;;14.10;56.70;;;;;;3920313;30;20198;-66
2023/03/14 14:20:03;;;;;;;10.77;5.90;;;14.10;57.00;;;;;;3925574;30;20161;-66